Time;durP1;ratioP1;P1;durP2;ratioP2;P2;SDS_P1;SDS_P2;PMS_P1;PMS_P2;Temp;Humidity;BMP_temperature;BMP_pressure;BME280_temperature;BME280_humidity;BME280_pressure;Samples;Min_cycle;Max_cycle;Signal;HPM_P1;HPM_P2
2023/03/30 00:01:53;;;;;;;10.75;7.95;;;;;;;;;;4940765;29;20028;-78
2023/03/30 00:04:21;;;;;;;10.82;7.57;;;;;;;;;;4940574;29;20028;-78
2023/03/30 00:06:48;;;;;;;10.85;7.53;;;;;;;;;;4940426;29;20016;-78
2023/03/30 00:09:14;;;;;;;11.40;6.80;;;;;;;;;;4943126;29;20106;-78
2023/03/30 00:11:42;;;;;;;11.00;6.75;;;;;;;;;;4943895;29;20068;-78
2023/03/30 00:14:08;;;;;;;10.88;6.78;;;;;;;;;;4944094;29;20024;-78
2023/03/30 00:16:34;;;;;;;13.55;6.63;;;;;;;;;;4944345;29;20088;-78
2023/03/30 00:18:59;;;;;;;10.77;6.50;;;;;;;;;;4944007;29;20471;-78
2023/03/30 00:21:26;;;;;;;16.40;7.55;;;;;;;;;;4927472;29;20122;-78
2023/03/30 00:23:52;;;;;;;14.00;6.60;;;;;;;;;;4945053;29;20106;-78
2023/03/30 00:26:19;;;;;;;13.00;6.90;;;;;;;;;;4945463;29;20058;-78
2023/03/30 00:28:45;;;;;;;9.13;5.75;;;;;;;;;;4945032;29;20031;-78
2023/03/30 00:31:11;;;;;;;14.45;6.50;;;;;;;;;;4946150;29;20560;-78
2023/03/30 00:33:39;;;;;;;11.65;6.43;;;;;;;;;;4945192;29;20482;-78
2023/03/30 00:36:08;;;;;;;11.23;6.63;;;;;;;;;;4944175;29;20028;-78
2023/03/30 00:38:33;;;;;;;9.93;5.90;;;;;;;;;;4945005;29;20486;-79
2023/03/30 00:41:00;;;;;;;9.45;6.05;;;;;;;;;;4945660;29;20032;-79
2023/03/30 00:43:27;;;;;;;10.18;6.15;;;;;;;;;;4945953;29;20028;-78
2023/03/30 00:45:55;;;;;;;10.15;5.75;;;;;;;;;;4945081;29;20034;-78
2023/03/30 00:48:22;;;;;;;12.32;5.97;;;;;;;;;;4945532;29;20471;-78
2023/03/30 00:51:08;;;;;;;12.02;5.82;;;;;;;;;;4944796;29;20055;-78
2023/03/30 00:53:39;;;;;;;9.07;5.97;;;;;;;;;;4944806;29;20024;-78
2023/03/30 00:56:06;;;;;;;10.93;6.40;;;;;;;;;;4944969;29;20024;-78
2023/03/30 00:58:32;;;;;;;12.02;6.60;;;;;;;;;;4945215;29;20581;-79
2023/03/30 01:01:00;;;;;;;10.98;6.28;;;;;;;;;;4944827;29;20031;-78
2023/03/30 01:03:26;;;;;;;11.38;6.43;;;;;;;;;;4945625;29;20058;-79
2023/03/30 01:05:53;;;;;;;9.43;6.10;;;;;;;;;;4947580;29;20032;-78
2023/03/30 01:08:22;;;;;;;9.77;6.07;;;;;;;;;;4945027;29;20046;-79
2023/03/30 01:10:48;;;;;;;12.43;6.35;;;;;;;;;;4945829;29;20082;-78
2023/03/30 01:13:14;;;;;;;9.63;6.45;;;;;;;;;;4945713;29;20023;-79
2023/03/30 01:15:51;;;;;;;14.13;6.68;;;;;;;;;;4945369;29;20031;-78
2023/03/30 01:18:29;;;;;;;11.02;6.43;;;;;;;;;;4944446;29;20058;-78
2023/03/30 01:21:02;;;;;;;9.40;5.95;;;;;;;;;;4944166;29;20059;-78
2023/03/30 01:23:39;;;;;;;10.77;6.22;;;;;;;;;;4945053;29;20028;-78
2023/03/30 01:26:23;;;;;;;8.05;6.15;;;;;;;;;;4959276;29;20090;-78
2023/03/30 01:28:49;;;;;;;7.88;5.75;;;;;;;;;;4962019;29;20090;-78
2023/03/30 01:31:28;;;;;;;9.65;5.35;;;;;;;;;;4961521;28;20035;-78
2023/03/30 01:34:20;;;;;;;8.83;5.33;;;;;;;;;;4961625;29;20116;-78
2023/03/30 01:37:08;;;;;;;9.02;5.35;;;;;;;;;;4961298;28;20385;-78
2023/03/30 01:39:44;;;;;;;11.82;5.05;;;;;;;;;;4962159;29;20059;-78
2023/03/30 01:42:16;;;;;;;9.40;4.90;;;;;;;;;;4962967;29;20035;-78
2023/03/30 01:44:49;;;;;;;10.80;5.68;;;;;;;;;;4978231;28;20050;-79
2023/03/30 01:47:18;;;;;;;9.38;5.47;;;;;;;;;;4978703;28;20066;-78
2023/03/30 01:50:02;;;;;;;10.55;4.72;;;;;;;;;;4962618;29;20051;-78
2023/03/30 01:52:37;;;;;;;10.75;4.68;;;;;;;;;;4962585;28;20066;-78
2023/03/30 01:55:18;;;;;;;6.60;3.92;;;;;;;;;;4962382;29;20027;-78
2023/03/30 01:57:51;;;;;;;10.10;3.45;;;;;;;;;;4962496;29;20359;-78
2023/03/30 02:00:20;;;;;;;9.30;4.05;;;;;;;;;;4962089;29;20026;-78
2023/03/30 02:02:51;;;;;;;8.07;3.50;;;;;;;;;;4962294;29;20086;-79
2023/03/30 02:05:19;;;;;;;7.28;3.13;;;;;;;;;;4962600;29;20161;-78
2023/03/30 02:07:49;;;;;;;6.78;3.17;;;;;;;;;;4961813;29;20030;-78
2023/03/30 02:10:17;;;;;;;5.72;2.38;;;;;;;;;;4962546;29;20023;-78
2023/03/30 02:12:44;;;;;;;6.70;2.72;;;;;;;;;;4962168;29;20434;-78
2023/03/30 02:15:11;;;;;;;9.27;3.42;;;;;;;;;;4962158;28;20027;-78
2023/03/30 02:17:38;;;;;;;9.02;2.92;;;;;;;;;;4961120;29;20052;-78
2023/03/30 02:20:09;;;;;;;7.70;3.28;;;;;;;;;;4947275;29;20031;-78
2023/03/30 02:22:36;;;;;;;7.93;3.13;;;;;;;;;;4943627;29;20078;-78
2023/03/30 02:25:02;;;;;;;9.73;3.33;;;;;;;;;;4925323;29;20019;-78
2023/03/30 02:27:28;;;;;;;9.23;2.95;;;;;;;;;;4942015;29;20621;-78
2023/03/30 02:29:55;;;;;;;7.00;2.67;;;;;;;;;;4941827;29;20492;-78
2023/03/30 02:32:25;;;;;;;7.15;3.08;;;;;;;;;;4940656;29;20455;-78
2023/03/30 02:35:05;;;;;;;7.90;3.40;;;;;;;;;;4940224;29;20023;-78
2023/03/30 02:37:31;;;;;;;;;;;;;;;;;;4941454;29;20027;-78
2023/03/30 02:40:11;;;;;;;6.82;3.35;;;;;;;;;;4941120;29;19958;-78
2023/03/30 02:42:49;;;;;;;7.35;3.05;;;;;;;;;;4942343;29;20676;-78
2023/03/30 02:45:28;;;;;;;9.68;3.15;;;;;;;;;;4943709;29;20031;-78
2023/03/30 02:48:12;;;;;;;10.57;3.13;;;;;;;;;;4943183;29;20042;-78
2023/03/30 02:50:45;;;;;;;6.80;2.90;;;;;;;;;;4942963;29;20060;-78
2023/03/30 02:53:27;;;;;;;7.55;3.10;;;;;;;;;;4941833;29;20024;-78
2023/03/30 02:55:53;;;;;;;7.50;2.80;;;;;;;;;;4941107;29;20032;-78
2023/03/30 02:58:33;;;;;;;11.27;3.55;;;;;;;;;;4940283;29;20038;-78
2023/03/30 03:01:23;;;;;;;4.90;2.67;;;;;;;;;;4942184;29;20032;-78
2023/03/30 03:03:51;;;;;;;6.60;2.60;;;;;;;;;;4924071;29;20032;-78
2023/03/30 03:06:19;;;;;;;7.78;2.60;;;;;;;;;;4941302;29;20537;-78
2023/03/30 03:08:46;;;;;;;10.55;3.40;;;;;;;;;;4941949;29;20391;-78
2023/03/30 03:11:13;;;;;;;9.70;3.10;;;;;;;;;;4941820;29;20086;-78
2023/03/30 03:13:39;;;;;;;9.32;3.15;;;;;;;;;;4941026;29;20023;-78
2023/03/30 03:16:06;;;;;;;14.63;4.00;;;;;;;;;;4940817;29;20031;-78
2023/03/30 03:18:34;;;;;;;10.25;2.67;;;;;;;;;;4941595;29;20043;-78
2023/03/30 03:21:00;;;;;;;9.07;3.08;;;;;;;;;;4942183;29;20024;-78
2023/03/30 03:23:26;;;;;;;8.60;3.33;;;;;;;;;;4942878;29;20427;-78
2023/03/30 03:25:52;;;;;;;9.77;3.60;;;;;;;;;;4941045;29;20086;-78
2023/03/30 03:28:19;;;;;;;7.57;3.22;;;;;;;;;;4940559;29;20102;-78
2023/03/30 03:30:45;;;;;;;10.32;3.10;;;;;;;;;;4940870;29;20063;-78
2023/03/30 03:33:13;;;;;;;8.98;2.95;;;;;;;;;;4939910;29;20429;-78
2023/03/30 03:35:39;;;;;;;9.70;3.05;;;;;;;;;;4939776;29;20364;-78
2023/03/30 03:38:06;;;;;;;10.82;3.30;;;;;;;;;;4939656;29;20493;-78
2023/03/30 03:40:32;;;;;;;9.60;3.00;;;;;;;;;;4941678;29;20051;-78
2023/03/30 03:42:58;;;;;;;12.95;3.50;;;;;;;;;;4942424;29;20035;-79
2023/03/30 03:45:24;;;;;;;10.02;2.95;;;;;;;;;;4942417;29;20027;-78
2023/03/30 03:47:50;;;;;;;9.57;3.03;;;;;;;;;;4943152;29;20239;-78
2023/03/30 03:50:17;;;;;;;13.55;3.70;;;;;;;;;;4941304;29;20458;-78
2023/03/30 03:52:43;;;;;;;11.88;3.50;;;;;;;;;;4942067;29;20020;-78
2023/03/30 03:55:09;;;;;;;10.82;3.10;;;;;;;;;;4941503;29;20027;-78
2023/03/30 03:57:35;;;;;;;8.98;3.83;;;;;;;;;;4941503;29;20378;-79
2023/03/30 04:00:02;;;;;;;11.20;2.85;;;;;;;;;;4941937;29;20103;-78
2023/03/30 04:02:28;;;;;;;12.13;3.30;;;;;;;;;;4923409;29;20554;-78
2023/03/30 04:04:54;;;;;;;7.55;3.03;;;;;;;;;;4940962;29;20027;-78
2023/03/30 04:07:20;;;;;;;11.18;3.97;;;;;;;;;;4941440;29;20024;-78
2023/03/30 04:09:46;;;;;;;7.57;3.00;;;;;;;;;;4940728;29;20028;-78
2023/03/30 04:12:13;;;;;;;14.50;3.33;;;;;;;;;;4940792;29;20498;-78
2023/03/30 04:14:39;;;;;;;10.98;3.15;;;;;;;;;;4944886;29;20094;-78
2023/03/30 04:17:05;;;;;;;14.15;3.30;;;;;;;;;;4959898;29;20043;-78
2023/03/30 04:19:31;;;;;;;13.35;3.33;;;;;;;;;;4961093;29;20027;-78
2023/03/30 04:21:57;;;;;;;12.00;3.30;;;;;;;;;;4960959;29;20374;-78
2023/03/30 04:24:26;;;;;;;12.10;3.80;;;;;;;;;;4960950;29;20102;-78
2023/03/30 04:26:52;;;;;;;11.77;3.63;;;;;;;;;;4939327;29;20043;-78
2023/03/30 04:29:21;;;;;;;14.10;3.60;;;;;;;;;;4946115;29;20046;-78
2023/03/30 04:31:49;;;;;;;15.13;3.67;;;;;;;;;;4943378;29;20035;-78
2023/03/30 04:34:20;;;;;;;14.80;4.82;;;;;;;;;;4946920;28;20506;-79
2023/03/30 04:36:46;;;;;;;14.00;3.88;;;;;;;;;;4948785;29;20022;-79
2023/03/30 04:39:12;;;;;;;13.27;4.60;;;;;;;;;;4951706;29;20490;-79
2023/03/30 04:41:40;;;;;;;11.23;3.40;;;;;;;;;;4954483;28;20031;-79
2023/03/30 04:44:08;;;;;;;20.48;4.28;;;;;;;;;;4956268;29;20149;-78
2023/03/30 04:46:34;;;;;;;10.10;3.13;;;;;;;;;;4956543;29;20114;-77
2023/03/30 04:49:00;;;;;;;15.32;3.75;;;;;;;;;;4954578;29;20817;-78
2023/03/30 04:51:26;;;;;;;11.85;3.15;;;;;;;;;;4954650;29;20034;-78
2023/03/30 04:53:52;;;;;;;11.82;3.08;;;;;;;;;;4951124;28;20104;-78
2023/03/30 04:56:18;;;;;;;9.85;3.60;;;;;;;;;;4939202;29;20459;-78
2023/03/30 04:58:53;;;;;;;11.80;3.17;;;;;;;;;;4940208;29;20078;-79
2023/03/30 05:01:19;;;;;;;13.18;3.70;;;;;;;;;;4952207;29;20027;-79
2023/03/30 05:03:46;;;;;;;12.93;4.05;;;;;;;;;;4942801;29;20032;-79
2023/03/30 05:06:12;;;;;;;16.95;5.72;;;;;;;;;;4959421;29;20031;-79
2023/03/30 05:08:38;;;;;;;15.40;4.00;;;;;;;;;;4943440;29;20059;-79
2023/03/30 05:11:05;;;;;;;14.93;3.60;;;;;;;;;;4938702;29;20114;-79
2023/03/30 05:13:31;;;;;;;13.60;3.30;;;;;;;;;;4938620;29;20035;-79
2023/03/30 05:15:57;;;;;;;14.23;3.25;;;;;;;;;;4945046;29;20031;-79
2023/03/30 05:18:24;;;;;;;11.25;2.55;;;;;;;;;;4956040;29;20529;-79
2023/03/30 05:20:50;;;;;;;11.30;3.42;;;;;;;;;;4949467;29;20035;-79
2023/03/30 05:23:16;;;;;;;8.02;3.08;;;;;;;;;;4938683;29;20055;-79
2023/03/30 05:25:47;;;;;;;14.77;3.45;;;;;;;;;;4938963;29;20378;-79
2023/03/30 05:28:13;;;;;;;8.45;3.00;;;;;;;;;;4938486;29;20088;-79
2023/03/30 05:30:39;;;;;;;12.82;3.08;;;;;;;;;;4938743;29;20079;-79
2023/03/30 05:33:08;;;;;;;14.43;3.45;;;;;;;;;;4937923;29;20419;-79
2023/03/30 05:35:34;;;;;;;14.20;3.20;;;;;;;;;;4938755;29;20059;-79
2023/03/30 05:38:00;;;;;;;11.75;3.08;;;;;;;;;;4938568;29;20509;-79
2023/03/30 05:40:26;;;;;;;10.73;3.35;;;;;;;;;;4939057;29;20032;-79
2023/03/30 05:42:52;;;;;;;12.50;2.88;;;;;;;;;;4938699;29;20478;-79
2023/03/30 05:45:18;;;;;;;15.45;3.00;;;;;;;;;;4936779;29;20031;-79
2023/03/30 05:47:44;;;;;;;10.15;2.75;;;;;;;;;;4939953;29;20074;-79
2023/03/30 05:50:10;;;;;;;13.32;3.22;;;;;;;;;;4905715;29;20048;-79
2023/03/30 05:52:37;;;;;;;9.95;2.58;;;;;;;;;;4900444;29;20029;-79
2023/03/30 05:55:03;;;;;;;10.35;3.25;;;;;;;;;;4900252;29;20084;-79
2023/03/30 05:57:29;;;;;;;11.27;3.00;;;;;;;;;;4900413;29;20120;-79
2023/03/30 05:59:55;;;;;;;11.73;3.40;;;;;;;;;;4900902;29;20092;-79
2023/03/30 06:02:21;;;;;;;8.10;2.67;;;;;;;;;;4900672;29;20028;-79
2023/03/30 06:04:47;;;;;;;11.52;2.97;;;;;;;;;;4899867;29;20028;-79
2023/03/30 06:07:13;;;;;;;13.13;3.10;;;;;;;;;;4899388;29;20043;-79
2023/03/30 06:09:39;;;;;;;11.02;3.25;;;;;;;;;;4908020;29;20033;-79
2023/03/30 06:12:05;;;;;;;12.23;3.92;;;;;;;;;;4911968;29;20080;-79
2023/03/30 06:14:31;;;;;;;13.55;3.33;;;;;;;;;;4918519;29;20029;-79
2023/03/30 06:16:57;;;;;;;8.80;2.65;;;;;;;;;;4918809;29;20035;-79
2023/03/30 06:19:23;;;;;;;11.60;3.42;;;;;;;;;;4917669;29;20038;-79
2023/03/30 06:21:49;;;;;;;13.43;3.00;;;;;;;;;;4919310;29;20435;-79
2023/03/30 06:24:15;;;;;;;11.77;3.15;;;;;;;;;;4919038;29;20483;-79
2023/03/30 06:26:41;;;;;;;20.25;2.80;;;;;;;;;;4919516;29;20032;-79
2023/03/30 06:29:07;;;;;;;12.52;3.33;;;;;;;;;;4917696;29;20029;-79
2023/03/30 06:31:33;;;;;;;11.23;3.40;;;;;;;;;;4917922;29;20036;-80
2023/03/30 06:33:59;;;;;;;14.25;2.78;;;;;;;;;;4903276;29;20037;-79
2023/03/30 06:36:26;;;;;;;14.93;2.80;;;;;;;;;;4900497;29;20409;-79
2023/03/30 06:38:52;;;;;;;10.85;2.30;;;;;;;;;;4901151;29;20056;-80
2023/03/30 06:41:18;;;;;;;14.38;2.35;;;;;;;;;;4899269;29;20029;-80
2023/03/30 06:43:44;;;;;;;9.15;2.60;;;;;;;;;;4902238;29;20029;-80
2023/03/30 06:46:11;;;;;;;15.63;3.00;;;;;;;;;;4901557;29;20024;-79
2023/03/30 06:48:37;;;;;;;13.43;2.55;;;;;;;;;;4907692;29;20044;-79
2023/03/30 06:51:05;;;;;;;18.25;2.75;;;;;;;;;;4957165;28;20059;-79
2023/03/30 06:53:31;;;;;;;15.07;3.67;;;;;;;;;;4940606;29;20028;-79
2023/03/30 06:55:57;;;;;;;15.80;3.13;;;;;;;;;;4956352;29;20046;-79
2023/03/30 06:58:24;;;;;;;14.95;2.65;;;;;;;;;;4942508;28;20490;-79
2023/03/30 07:00:51;;;;;;;14.45;2.60;;;;;;;;;;4951589;28;20066;-79
2023/03/30 07:03:17;;;;;;;15.93;2.47;;;;;;;;;;4956643;29;20022;-79
2023/03/30 07:05:44;;;;;;;18.33;3.58;;;;;;;;;;4955662;29;20046;-79
2023/03/30 07:08:10;;;;;;;14.90;2.85;;;;;;;;;;4947035;29;20031;-79
2023/03/30 07:10:36;;;;;;;13.88;3.65;;;;;;;;;;4946219;29;20117;-79
2023/03/30 07:13:02;;;;;;;16.02;3.15;;;;;;;;;;4948348;29;20581;-79
2023/03/30 07:15:28;;;;;;;14.40;2.95;;;;;;;;;;4946711;29;20030;-79
2023/03/30 07:17:54;;;;;;;15.93;2.72;;;;;;;;;;4945651;29;20023;-79
2023/03/30 07:20:20;;;;;;;18.10;3.75;;;;;;;;;;4940870;29;20522;-79
2023/03/30 07:22:46;;;;;;;16.42;3.65;;;;;;;;;;4943423;29;20023;-79
2023/03/30 07:25:13;;;;;;;16.17;3.42;;;;;;;;;;4947132;29;20034;-79
2023/03/30 07:27:39;;;;;;;15.18;2.80;;;;;;;;;;4946038;29;20023;-79
2023/03/30 07:30:07;;;;;;;15.95;3.60;;;;;;;;;;4947176;29;20046;-79
2023/03/30 07:32:33;;;;;;;15.25;2.80;;;;;;;;;;4943558;29;20110;-79
2023/03/30 07:35:00;;;;;;;13.15;2.75;;;;;;;;;;4942318;29;20106;-78
2023/03/30 07:37:27;;;;;;;15.25;2.85;;;;;;;;;;4945547;28;20031;-79
2023/03/30 07:39:53;;;;;;;22.02;3.17;;;;;;;;;;4948110;29;20055;-79
2023/03/30 07:42:19;;;;;;;18.55;3.05;;;;;;;;;;4950835;29;20023;-80
2023/03/30 07:44:45;;;;;;;21.55;3.40;;;;;;;;;;4955508;28;20050;-79
2023/03/30 07:47:11;;;;;;;26.08;3.90;;;;;;;;;;4954787;29;20031;-79
2023/03/30 07:49:37;;;;;;;20.17;4.05;;;;;;;;;;4954983;28;20522;-79
2023/03/30 07:52:03;;;;;;;17.73;3.10;;;;;;;;;;4956017;29;20038;-79
2023/03/30 07:54:29;;;;;;;23.15;3.78;;;;;;;;;;4938104;29;20027;-79
2023/03/30 07:56:55;;;;;;;20.10;3.35;;;;;;;;;;4954441;28;20030;-79
2023/03/30 07:59:22;;;;;;;18.35;2.92;;;;;;;;;;4936200;29;20482;-79
2023/03/30 08:01:53;;;;;;;17.95;3.38;;;;;;;;;;4943589;29;20062;-79
2023/03/30 08:04:19;;;;;;;19.98;3.60;;;;;;;;;;4944881;29;20054;-79
2023/03/30 08:06:46;;;;;;;16.65;3.40;;;;;;;;;;4943258;29;20028;-79
2023/03/30 08:09:12;;;;;;;17.58;3.67;;;;;;;;;;4941572;29;20051;-79
2023/03/30 08:11:38;;;;;;;18.85;3.20;;;;;;;;;;4952021;28;20039;-79
2023/03/30 08:14:04;;;;;;;20.42;2.60;;;;;;;;;;4955791;29;20027;-79
2023/03/30 08:16:31;;;;;;;20.02;4.15;;;;;;;;;;4955199;29;20027;-79
2023/03/30 08:18:57;;;;;;;19.75;3.03;;;;;;;;;;4955793;29;20074;-79
2023/03/30 08:21:25;;;;;;;20.25;3.80;;;;;;;;;;4955312;29;20074;-79
2023/03/30 08:23:58;;;;;;;20.73;2.95;;;;;;;;;;4939770;28;20027;-79
2023/03/30 08:26:27;;;;;;;14.57;2.65;;;;;;;;;;4935971;29;20023;-80
2023/03/30 08:28:53;;;;;;;19.65;3.17;;;;;;;;;;4937642;29;20032;-80
2023/03/30 08:31:20;;;;;;;19.63;2.92;;;;;;;;;;4940004;29;20031;-80
2023/03/30 08:33:47;;;;;;;15.70;2.83;;;;;;;;;;4939540;29;20354;-79
2023/03/30 08:36:13;;;;;;;12.77;2.65;;;;;;;;;;4939650;29;20028;-80
2023/03/30 08:38:40;;;;;;;16.30;3.95;;;;;;;;;;4921865;29;20031;-80
2023/03/30 08:41:32;;;;;;;12.50;2.55;;;;;;;;;;4939230;29;20434;-80
2023/03/30 08:44:01;;;;;;;15.90;2.70;;;;;;;;;;4917564;29;20040;-80
2023/03/30 08:46:28;;;;;;;16.70;2.65;;;;;;;;;;4951097;29;20027;-80
2023/03/30 08:48:56;;;;;;;15.20;2.83;;;;;;;;;;4958042;29;20104;-80
2023/03/30 08:51:23;;;;;;;15.43;2.28;;;;;;;;;;4959006;29;20509;-80
2023/03/30 08:53:56;;;;;;;17.88;2.67;;;;;;;;;;4957837;29;20041;-80
2023/03/30 08:56:33;;;;;;;13.75;2.67;;;;;;;;;;4958466;29;20063;-80
2023/03/30 08:59:09;;;;;;;23.38;3.20;;;;;;;;;;4940034;29;20031;-80
2023/03/30 09:01:35;;;;;;;14.70;2.20;;;;;;;;;;4940585;29;20062;-80
2023/03/30 09:04:16;;;;;;;19.40;3.45;;;;;;;;;;4932219;29;20031;-80
2023/03/30 09:06:46;;;;;;;14.10;2.90;;;;;;;;;;4931645;29;20031;-80
2023/03/30 09:09:13;;;;;;;16.88;2.92;;;;;;;;;;4948714;29;20389;-80
2023/03/30 09:11:39;;;;;;;17.50;2.35;;;;;;;;;;4947937;29;20514;-80
2023/03/30 09:14:07;;;;;;;17.02;3.45;;;;;;;;;;4947129;29;20023;-80
2023/03/30 09:16:38;;;;;;;14.73;2.97;;;;;;;;;;4951644;29;20042;-80
2023/03/30 09:19:05;;;;;;;14.52;2.40;;;;;;;;;;4950198;29;20062;-80
2023/03/30 09:21:31;;;;;;;17.60;3.08;;;;;;;;;;4950416;29;20098;-81
2023/03/30 09:23:59;;;;;;;15.40;3.00;;;;;;;;;;4959422;28;20091;-81
2023/03/30 09:26:35;;;;;;;15.80;3.10;;;;;;;;;;4952268;29;20027;-80
2023/03/30 09:29:13;;;;;;;15.27;2.58;;;;;;;;;;4957260;29;20027;-80
2023/03/30 09:31:40;;;;;;;11.95;2.65;;;;;;;;;;4946820;29;20039;-80
2023/03/30 09:34:26;;;;;;;18.60;2.70;;;;;;;;;;4941490;29;20493;-80
2023/03/30 09:36:56;;;;;;;21.15;3.80;;;;;;;;;;4939506;29;20028;-80
2023/03/30 09:39:27;;;;;;;16.13;2.63;;;;;;;;;;4940752;29;20030;-80
2023/03/30 09:42:13;;;;;;;16.95;3.05;;;;;;;;;;4937659;29;20087;-80
2023/03/30 09:44:51;;;;;;;12.73;2.78;;;;;;;;;;4938993;29;20478;-80
2023/03/30 09:47:27;;;;;;;14.52;2.30;;;;;;;;;;4939030;29;20035;-81
2023/03/30 09:49:57;;;;;;;19.67;2.88;;;;;;;;;;4937296;29;20087;-80
2023/03/30 09:52:25;;;;;;;14.02;2.63;;;;;;;;;;4939007;29;20035;-80
2023/03/30 09:54:51;;;;;;;22.42;3.42;;;;;;;;;;4950994;29;20090;-80
2023/03/30 09:57:35;;;;;;;14.70;3.28;;;;;;;;;;4957454;29;20031;-80
2023/03/30 10:00:21;;;;;;;15.32;2.67;;;;;;;;;;4957351;29;20035;-80
2023/03/30 10:02:55;;;;;;;15.90;2.90;;;;;;;;;;4936778;29;20451;-81
2023/03/30 10:05:21;;;;;;;12.50;3.00;;;;;;;;;;4938848;29;20030;-80
2023/03/30 10:07:52;;;;;;;15.68;3.45;;;;;;;;;;4921951;29;20098;-80
2023/03/30 10:10:30;;;;;;;17.58;3.13;;;;;;;;;;4938333;29;20042;-80
2023/03/30 10:13:02;;;;;;;17.77;3.28;;;;;;;;;;4937685;29;20035;-80
2023/03/30 10:15:30;;;;;;;15.07;2.92;;;;;;;;;;4938407;29;20387;-80
2023/03/30 10:18:00;;;;;;;21.50;3.13;;;;;;;;;;4938162;29;20024;-80
2023/03/30 10:20:35;;;;;;;13.57;2.20;;;;;;;;;;4937605;29;20525;-80
2023/03/30 10:23:17;;;;;;;16.27;2.58;;;;;;;;;;4937928;29;20387;-80
2023/03/30 10:25:48;;;;;;;15.20;2.97;;;;;;;;;;4920914;29;20407;-80
2023/03/30 10:28:35;;;;;;;22.08;3.28;;;;;;;;;;4936778;29;20034;-80
2023/03/30 10:31:03;;;;;;;15.40;3.25;;;;;;;;;;4951764;28;20419;-80
2023/03/30 10:33:30;;;;;;;18.20;3.17;;;;;;;;;;4939061;29;20093;-80
2023/03/30 10:35:59;;;;;;;21.33;3.95;;;;;;;;;;4939576;29;20482;-80
2023/03/30 10:38:30;;;;;;;18.38;2.70;;;;;;;;;;4957939;29;20028;-80
2023/03/30 10:41:01;;;;;;;13.60;3.03;;;;;;;;;;4957305;29;20059;-80
2023/03/30 10:43:29;;;;;;;20.80;3.55;;;;;;;;;;4936943;29;20040;-80
2023/03/30 10:45:56;;;;;;;18.83;3.42;;;;;;;;;;4944793;29;20020;-80
2023/03/30 10:48:25;;;;;;;20.20;3.78;;;;;;;;;;4939866;29;20024;-80
2023/03/30 10:51:00;;;;;;;20.88;3.17;;;;;;;;;;4935853;29;20042;-81
2023/03/30 10:53:33;;;;;;;16.63;3.15;;;;;;;;;;4921358;29;20107;-80
2023/03/30 10:56:17;;;;;;;21.33;2.95;;;;;;;;;;4929851;29;20043;-80
2023/03/30 10:59:02;;;;;;;20.08;4.18;;;;;;;;;;4930308;29;20027;-80
2023/03/30 11:01:28;;;;;;;19.67;3.25;;;;;;;;;;4926634;29;20091;-80
2023/03/30 11:03:57;;;;;;;13.35;2.72;;;;;;;;;;4927669;29;20031;-80
2023/03/30 11:06:31;;;;;;;15.88;2.72;;;;;;;;;;4924143;29;20060;-80
2023/03/30 11:09:00;;;;;;;17.90;2.65;;;;;;;;;;4924372;29;20483;-80
2023/03/30 11:11:38;;;;;;;13.57;2.37;;;;;;;;;;4918836;29;20036;-80
2023/03/30 11:14:12;;;;;;;26.05;4.38;;;;;;;;;;4919167;29;20439;-81
2023/03/30 11:16:46;;;;;;;18.80;3.42;;;;;;;;;;4933266;29;20036;-80
2023/03/30 11:19:21;;;;;;;19.75;3.55;;;;;;;;;;4921135;29;20028;-80
2023/03/30 11:22:05;;;;;;;22.55;3.15;;;;;;;;;;4931273;29;20438;-80
2023/03/30 11:24:33;;;;;;;23.05;3.22;;;;;;;;;;4928680;29;20032;-81
2023/03/30 11:27:03;;;;;;;19.55;3.10;;;;;;;;;;4930584;29;20119;-80
2023/03/30 11:29:32;;;;;;;17.63;3.22;;;;;;;;;;4930319;29;20123;-80
2023/03/30 11:32:05;;;;;;;15.95;3.25;;;;;;;;;;4925503;29;20024;-80
2023/03/30 11:34:40;;;;;;;20.35;3.67;;;;;;;;;;4925665;29;20086;-80
2023/03/30 11:37:17;;;;;;;24.88;3.65;;;;;;;;;;4932847;29;20032;-80
2023/03/30 11:40:09;;;;;;;20.33;4.10;;;;;;;;;;4937697;29;20043;-80
2023/03/30 11:42:36;;;;;;;20.30;4.00;;;;;;;;;;4931383;29;20107;-81
2023/03/30 11:45:16;;;;;;;18.73;3.63;;;;;;;;;;4937620;29;20467;-81
2023/03/30 11:47:51;;;;;;;22.27;3.57;;;;;;;;;;4937932;29;20395;-81
2023/03/30 11:50:40;;;;;;;18.55;3.53;;;;;;;;;;4940980;29;20056;-81
2023/03/30 11:53:24;;;;;;;18.98;3.47;;;;;;;;;;4883221;29;20044;-81
2023/03/30 11:55:56;;;;;;;16.45;3.25;;;;;;;;;;4918075;29;20447;-80
2023/03/30 11:58:42;;;;;;;17.45;3.55;;;;;;;;;;4917236;29;20038;-81
2023/03/30 12:01:20;;;;;;;22.60;3.38;;;;;;;;;;4917250;29;20518;-80
2023/03/30 12:03:51;;;;;;;20.10;2.88;;;;;;;;;;4921130;29;20060;-80
2023/03/30 12:06:16;;;;;;;21.17;3.47;;;;;;;;;;4915603;29;20082;-80
2023/03/30 12:08:48;;;;;;;18.33;3.53;;;;;;;;;;4910397;29;20029;-80
2023/03/30 12:11:23;;;;;;;20.88;3.47;;;;;;;;;;4916864;29;20040;-80
2023/03/30 12:13:50;;;;;;;17.85;4.13;;;;;;;;;;4926153;29;20024;-80
2023/03/30 12:16:19;;;;;;;18.77;3.35;;;;;;;;;;4929138;29;20060;-80
2023/03/30 12:18:45;;;;;;;10.82;3.03;;;;;;;;;;4923435;29;20450;-80
2023/03/30 12:21:17;;;;;;;24.23;3.92;;;;;;;;;;4922788;29;20495;-80
2023/03/30 12:23:56;;;;;;;19.73;4.15;;;;;;;;;;4922655;29;20318;-80
2023/03/30 12:26:29;;;;;;;21.08;4.18;;;;;;;;;;4921788;29;20484;-80
2023/03/30 12:28:58;;;;;;;22.73;4.22;;;;;;;;;;4922680;29;20053;-80
2023/03/30 12:31:44;;;;;;;22.27;4.15;;;;;;;;;;4921796;29;20047;-80
2023/03/30 12:34:10;;;;;;;22.88;3.80;;;;;;;;;;4922396;29;20028;-80
2023/03/30 12:36:38;;;;;;;21.45;3.75;;;;;;;;;;4921972;29;20393;-80
2023/03/30 12:39:29;;;;;;;24.10;4.65;;;;;;;;;;4922621;29;20032;-81
2023/03/30 12:42:34;;;;;;;18.83;3.47;;;;;;;;;;4916289;29;20112;-80
2023/03/30 12:45:20;;;;;;;24.58;3.53;;;;;;;;;;4923481;29;20027;-80
2023/03/30 12:47:46;;;;;;;24.60;5.53;;;;;;;;;;4921158;29;20047;-80
2023/03/30 12:50:18;;;;;;;24.70;3.88;;;;;;;;;;4942997;29;20075;-80
2023/03/30 12:52:44;;;;;;;19.50;3.53;;;;;;;;;;4961048;29;20027;-80
2023/03/30 12:55:10;;;;;;;26.27;3.95;;;;;;;;;;4960911;29;20050;-80
2023/03/30 12:57:45;;;;;;;16.83;3.55;;;;;;;;;;4967133;29;20032;-80
2023/03/30 13:00:22;;;;;;;20.65;4.47;;;;;;;;;;4963273;29;20059;-79
2023/03/30 13:02:53;;;;;;;21.95;4.25;;;;;;;;;;4947966;29;20028;-80
2023/03/30 13:05:30;;;;;;;24.48;4.13;;;;;;;;;;4945908;29;20170;-79
2023/03/30 13:07:56;;;;;;;22.20;3.63;;;;;;;;;;4947631;29;20020;-79
2023/03/30 13:10:38;;;;;;;22.40;3.13;;;;;;;;;;4944235;29;20036;-80
2023/03/30 13:13:04;;;;;;;18.90;2.75;;;;;;;;;;4943747;29;20078;-80
2023/03/30 13:15:40;;;;;;;20.40;3.40;;;;;;;;;;4944266;29;20035;-79
2023/03/30 13:18:06;;;;;;;19.13;3.67;;;;;;;;;;4946388;29;20043;-79
2023/03/30 13:20:34;;;;;;;21.73;3.60;;;;;;;;;;4947395;29;20036;-79
2023/03/30 13:23:00;;;;;;;28.83;4.22;;;;;;;;;;4952764;29;20027;-80
2023/03/30 13:25:48;;;;;;;26.77;3.45;;;;;;;;;;4951295;29;20024;-79
2023/03/30 13:28:29;;;;;;;15.80;3.05;;;;;;;;;;4946484;29;20502;-79
2023/03/30 13:30:59;;;;;;;20.98;3.70;;;;;;;;;;4955776;28;20028;-78
2023/03/30 13:33:26;;;;;;;16.40;3.55;;;;;;;;;;4942981;29;20545;-79
2023/03/30 13:35:52;;;;;;;21.33;3.78;;;;;;;;;;4939506;29;20390;-79
2023/03/30 13:38:38;;;;;;;19.73;3.88;;;;;;;;;;4941055;29;20062;-80
2023/03/30 13:41:07;;;;;;;18.15;3.00;;;;;;;;;;4922189;29;20040;-79
2023/03/30 13:43:38;;;;;;;19.15;3.88;;;;;;;;;;4938464;29;20024;-78
2023/03/30 13:46:17;;;;;;;18.85;3.38;;;;;;;;;;4954233;29;20019;-79
2023/03/30 13:48:52;;;;;;;27.38;4.75;;;;;;;;;;4957165;28;20467;-78
2023/03/30 13:51:20;;;;;;;23.42;3.22;;;;;;;;;;4956797;29;20445;-78
2023/03/30 13:53:49;;;;;;;16.02;3.63;;;;;;;;;;4956792;29;20096;-78
2023/03/30 13:56:15;;;;;;;11.18;2.55;;;;;;;;;;4956482;29;20083;-78
2023/03/30 13:58:45;;;;;;;19.77;3.75;;;;;;;;;;4943718;29;20442;-78
2023/03/30 14:01:14;;;;;;;23.80;3.85;;;;;;;;;;4938369;29;20035;-78
2023/03/30 14:03:45;;;;;;;21.77;3.53;;;;;;;;;;4938790;29;20079;-78
2023/03/30 14:06:14;;;;;;;19.23;2.90;;;;;;;;;;4938819;29;20483;-79
2023/03/30 14:08:45;;;;;;;23.98;3.38;;;;;;;;;;4939634;29;20097;-79
2023/03/30 14:11:16;;;;;;;26.35;3.60;;;;;;;;;;4939124;29;20040;-78
2023/03/30 14:13:43;;;;;;;25.60;4.25;;;;;;;;;;4938788;29;20062;-79
2023/03/30 14:16:09;;;;;;;21.00;3.90;;;;;;;;;;4956932;28;20027;-79
2023/03/30 14:18:35;;;;;;;17.98;3.88;;;;;;;;;;4959761;29;20102;-79
2023/03/30 14:21:03;;;;;;;22.80;3.85;;;;;;;;;;4957464;29;20031;-79
2023/03/30 14:23:35;;;;;;;17.75;3.72;;;;;;;;;;4957223;29;20534;-79
2023/03/30 14:26:03;;;;;;;25.38;4.13;;;;;;;;;;4937833;28;20027;-79
2023/03/30 14:28:32;;;;;;;22.42;3.85;;;;;;;;;;4945597;29;20032;-79
2023/03/30 14:31:03;;;;;;;25.48;3.55;;;;;;;;;;4935897;29;20044;-79
2023/03/30 14:33:30;;;;;;;23.70;3.95;;;;;;;;;;4936231;29;20043;-79
2023/03/30 14:35:57;;;;;;;28.63;3.85;;;;;;;;;;4936143;29;20431;-79
2023/03/30 14:38:25;;;;;;;22.58;4.45;;;;;;;;;;4936667;29;20035;-80
2023/03/30 14:40:51;;;;;;;19.33;4.10;;;;;;;;;;4938571;29;20059;-78
2023/03/30 14:43:25;;;;;;;18.23;3.95;;;;;;;;;;4955113;29;20037;-79
2023/03/30 14:45:52;;;;;;;26.55;3.78;;;;;;;;;;4937405;29;20020;-80
2023/03/30 14:48:38;;;;;;;20.17;4.28;;;;;;;;;;4951026;28;20028;-80
2023/03/30 14:51:08;;;;;;;26.80;3.92;;;;;;;;;;4950628;29;20070;-80